Time;durP1;ratioP1;P1;durP2;ratioP2;P2;SDS_P1;SDS_P2;PMS_P1;PMS_P2;Temp;Humidity;BMP_temperature;BMP_pressure;BME280_temperature;BME280_humidity;BME280_pressure;Samples;Min_cycle;Max_cycle;Signal;HPM_P1;HPM_P2
2021/05/31 00:01:36;;;;;;;;;7.00;6.75;;;;;17.68;38.82;101690.66;5051120;28;51401;-51
2021/05/31 00:04:01;;;;;;;;;6.00;6.00;;;;;17.70;39.36;101695.94;5055284;28;52074;-49
2021/05/31 00:06:27;;;;;;;;;7.00;7.00;;;;;17.69;38.60;101689.81;5053903;28;51023;-49
2021/05/31 00:08:52;;;;;;;;;6.75;6.75;;;;;17.69;38.86;101688.94;5055851;28;51126;-49
2021/05/31 00:11:20;;;;;;;;;8.00;8.00;;;;;17.66;38.63;101699.34;5053210;28;51191;-49
2021/05/31 00:13:47;;;;;;;;;8.00;7.75;;;;;17.64;38.46;101680.03;5054813;28;51771;-50
2021/05/31 00:16:14;;;;;;;;;7.50;6.75;;;;;17.63;39.06;101688.78;5055737;28;51031;-50
2021/05/31 00:18:40;;;;;;;;;9.00;9.00;;;;;17.60;38.88;101684.28;5055678;28;50934;-49
2021/05/31 00:21:05;;;;;;;;;9.00;8.50;;;;;17.56;38.95;101687.72;5055337;28;51076;-51
2021/05/31 00:23:31;;;;;;;;;8.75;8.00;;;;;17.52;39.81;101688.47;5053952;28;51023;-51
2021/05/31 00:25:56;;;;;;;;;8.75;8.50;;;;;17.47;40.01;101684.84;5052623;28;51091;-49
2021/05/31 00:28:21;;;;;;;;;8.00;8.00;;;;;17.42;39.82;101684.69;5058153;28;50949;-48
2021/05/31 00:30:47;;;;;;;;;9.50;8.75;;;;;17.37;40.05;101674.06;5050149;28;52311;-50
2021/05/31 00:33:12;;;;;;;;;9.75;9.75;;;;;17.33;40.41;101680.09;5053735;28;51770;-49
2021/05/31 00:35:37;;;;;;;;;8.00;8.00;;;;;17.28;40.52;101679.06;5054104;28;51095;-48
2021/05/31 00:38:03;;;;;;;;;10.00;9.25;;;;;17.23;40.89;101684.16;5054590;28;51145;-49
2021/05/31 00:40:29;;;;;;;;;9.75;9.25;;;;;17.19;40.74;101672.69;5054401;28;51246;-50
2021/05/31 00:42:55;;;;;;;;;8.75;8.75;;;;;17.17;41.53;101674.38;5055009;28;51148;-52
2021/05/31 00:45:21;;;;;;;;;11.00;9.75;;;;;17.13;41.35;101667.25;5044429;28;51319;-51
2021/05/31 00:47:50;;;;;;;;;9.25;9.25;;;;;17.08;41.21;101674.09;5064057;28;51012;-52
2021/05/31 00:50:16;;;;;;;;;10.25;9.00;;;;;17.05;41.64;101668.78;5053614;28;51394;-50
2021/05/31 00:52:42;;;;;;;;;9.00;9.00;;;;;17.00;42.11;101670.38;5053359;28;52269;-49
2021/05/31 00:55:08;;;;;;;;;11.75;10.25;;;;;16.97;42.50;101659.75;5051857;28;51110;-51
2021/05/31 00:57:33;;;;;;;;;8.50;8.00;;;;;16.92;42.60;101673.63;5047960;28;51167;-50
2021/05/31 00:59:59;;;;;;;;;9.50;8.00;;;;;16.91;42.03;101671.88;5045600;28;51391;-48
2021/05/31 01:02:24;;;;;;;;;7.00;7.00;;;;;16.88;42.37;101674.38;5054560;28;53711;-49
2021/05/31 01:04:50;;;;;;;;;8.50;8.25;;;;;16.85;42.22;101661.16;5053798;28;51159;-50
2021/05/31 01:07:24;;;;;;;;;9.75;9.00;;;;;16.80;42.52;101663.66;5054530;28;51263;-50
2021/05/31 01:10:07;;;;;;;;;9.25;8.75;;;;;16.78;43.21;101661.84;5053923;28;51255;-50
2021/05/31 01:12:57;;;;;;;;;6.00;6.00;;;;;16.76;42.34;101658.25;5058692;27;50958;-47
2021/05/31 01:15:34;;;;;;;;;8.25;8.00;;;;;16.71;42.50;101655.50;5039262;28;51091;-51
2021/05/31 01:17:59;;;;;;;;;10.50;8.75;;;;;16.69;42.71;101662.44;5054698;28;51081;-47
2021/05/31 01:20:43;;;;;;;;;10.25;9.75;;;;;16.70;42.30;101660.72;5053455;28;50895;-49
2021/05/31 01:23:12;;;;;;;;;8.00;7.25;;;;;16.66;42.22;101660.59;5052431;28;51210;-49
2021/05/31 01:25:57;;;;;;;;;8.00;8.00;;;;;16.61;42.83;101662.19;5075843;27;51072;-51
2021/05/31 01:28:48;;;;;;;;;8.50;8.25;;;;;16.58;42.48;101656.88;5054284;28;51166;-49
2021/05/31 01:31:17;;;;;;;;;11.00;9.50;;;;;16.56;42.53;101657.69;5041250;28;51206;-48
2021/05/31 01:33:44;;;;;;;;;6.00;6.00;;;;;16.53;42.62;101658.47;5044592;28;52041;-51
2021/05/31 01:36:11;;;;;;;;;10.00;8.75;;;;;16.52;42.49;101654.03;5050248;28;50959;-50
2021/05/31 01:38:39;;;;;;;;;8.25;7.75;;;;;16.50;42.79;101658.38;5053874;28;51123;-49
2021/05/31 01:41:07;;;;;;;;;8.25;7.75;;;;;16.47;42.79;101647.78;5052804;28;51279;-51
2021/05/31 01:43:33;;;;;;;;;8.50;8.50;;;;;16.40;42.78;101647.59;5052824;28;51105;-51
2021/05/31 01:46:00;;;;;;;;;8.75;8.00;;;;;16.39;42.93;101642.28;5050758;28;51164;-49
2021/05/31 01:48:26;;;;;;;;;8.25;8.00;;;;;16.36;43.05;101644.81;5061932;28;51223;-50
2021/05/31 01:50:52;;;;;;;;;7.25;7.00;;;;;16.33;43.30;101644.72;5053380;28;51402;-49
2021/05/31 01:53:18;;;;;;;;;8.00;7.00;;;;;16.31;43.49;101641.16;5050162;28;52802;-49
2021/05/31 01:55:44;;;;;;;;;9.75;9.50;;;;;16.27;43.48;101642.78;5050272;28;51054;-50
2021/05/31 01:58:10;;;;;;;;;7.00;7.00;;;;;16.23;43.85;101638.28;5054010;28;51216;-50
2021/05/31 02:00:35;;;;;;;;;7.75;7.75;;;;;16.19;43.65;101636.41;5053064;28;51386;-48
2021/05/31 02:03:02;;;;;;;;;8.00;7.75;;;;;16.17;43.90;101638.09;5048573;28;52272;-51
2021/05/31 02:05:28;;;;;;;;;6.00;6.00;;;;;16.13;44.36;101635.38;5048541;28;50991;-49
2021/05/31 02:07:55;;;;;;;;;8.25;8.25;;;;;16.10;44.21;101627.41;5052562;28;51077;-50
2021/05/31 02:10:20;;;;;;;;;8.00;7.00;;;;;16.07;44.34;101634.28;5052866;28;51222;-48
2021/05/31 02:12:55;;;;;;;;;7.00;7.00;;;;;16.02;44.37;101634.16;5053456;28;52003;-50
2021/05/31 02:15:55;;;;;;;;;9.50;9.25;;;;;16.00;44.78;101623.59;5053494;28;51061;-49
2021/05/31 02:18:30;;;;;;;;;7.75;7.75;;;;;15.96;44.24;101624.34;5040052;28;50875;-52
2021/05/31 02:21:06;;;;;;;;;7.00;7.00;;;;;15.94;44.52;101627.75;5051177;28;51078;-49
2021/05/31 02:23:32;;;;;;;;;10.50;9.50;;;;;15.91;44.52;101627.59;5051912;28;51127;-49
2021/05/31 02:25:57;;;;;;;;;9.00;8.50;;;;;15.87;45.32;101621.38;5053567;28;50991;-47
2021/05/31 02:28:23;;;;;;;;;7.25;7.25;;;;;15.83;44.85;101628.25;5053406;28;50958;-49
2021/05/31 02:30:49;;;;;;;;;8.00;8.00;;;;;15.81;45.05;101623.81;5052811;28;50922;-49
2021/05/31 02:33:14;;;;;;;;;8.25;8.25;;;;;15.78;45.01;101629.81;5053312;28;53026;-50
2021/05/31 02:35:39;;;;;;;;;11.00;9.50;;;;;15.77;44.96;101633.28;5053484;28;51044;-49
2021/05/31 02:38:07;;;;;;;;;8.00;7.25;;;;;15.72;44.96;101632.22;5052069;28;51168;-49
2021/05/31 02:40:33;;;;;;;;;6.25;6.25;;;;;15.68;45.09;101631.22;5043836;28;51061;-50
2021/05/31 02:43:02;;;;;;;;;8.25;7.50;;;;;15.67;45.07;101633.78;5050740;28;52041;-48
2021/05/31 02:45:29;;;;;;;;;9.25;8.75;;;;;15.65;45.37;101633.75;5050722;28;51395;-49
2021/05/31 02:47:57;;;;;;;;;8.25;8.00;;;;;15.62;45.47;101634.53;5050697;28;51437;-49
2021/05/31 02:50:23;;;;;;;;;7.25;7.25;;;;;15.60;45.39;101638.84;5050560;28;51487;-50
2021/05/31 02:52:48;;;;;;;;;8.00;8.00;;;;;15.57;45.60;101630.84;5046319;28;51735;-48
2021/05/31 02:55:22;;;;;;;;;7.75;7.75;;;;;15.53;45.41;101631.59;5049034;28;51076;-51
2021/05/31 03:01:09;;;;;;;;;9.25;8.75;;;;;15.49;45.65;101634.94;5052365;28;51396;-50
2021/05/31 03:03:35;;;;;;;;;7.00;6.75;;;;;15.47;45.63;101641.84;5052777;28;51972;-49
2021/05/31 03:06:00;;;;;;;;;9.00;9.00;;;;;15.43;45.95;101639.97;5052143;28;51770;-51
2021/05/31 03:08:25;;;;;;;;;10.25;9.00;;;;;15.41;46.09;101649.47;5048196;28;51195;-51
2021/05/31 03:10:51;;;;;;;;;9.00;7.25;;;;;15.37;46.28;101647.59;5052109;28;51160;-50
2021/05/31 03:13:17;;;;;;;;;7.75;7.00;;;;;15.34;47.12;101644.03;5052332;28;51053;-49
2021/05/31 03:15:42;;;;;;;;;8.25;8.25;;;;;15.32;46.66;101644.81;5052768;28;51015;-50
2021/05/31 03:18:08;;;;;;;;;7.75;7.75;;;;;15.29;46.87;101647.28;5052779;28;51038;-51
2021/05/31 03:20:34;;;;;;;;;10.50;9.25;;;;;15.26;47.13;101645.47;5052428;28;51073;-51
2021/05/31 03:23:01;;;;;;;;;10.00;9.00;;;;;15.23;46.86;101645.38;5064894;28;53148;-50
2021/05/31 03:25:26;;;;;;;;;7.50;7.25;;;;;15.19;47.13;101646.97;5044432;28;51072;-50
2021/05/31 03:27:53;;;;;;;;;10.00;9.50;;;;;15.16;46.80;101653.81;5047953;28;51183;-48
2021/05/31 03:30:19;;;;;;;;;8.00;8.00;;;;;15.12;47.27;101649.31;5042800;28;51031;-51
2021/05/31 03:32:45;;;;;;;;;8.00;7.75;;;;;15.09;47.11;101652.69;5051188;28;51501;-50
2021/05/31 03:35:12;;;;;;;;;9.50;9.00;;;;;15.04;47.12;101644.69;5052599;28;51142;-50
2021/05/31 03:37:38;;;;;;;;;6.50;6.50;;;;;15.06;47.46;101655.22;5050782;28;51139;-50
2021/05/31 03:40:05;;;;;;;;;9.25;9.00;;;;;15.04;47.60;101649.94;5051700;28;50981;-49
2021/05/31 03:42:30;;;;;;;;;8.50;8.50;;;;;15.02;47.64;101648.97;5047135;28;51875;-53
2021/05/31 03:44:56;;;;;;;;;9.00;7.00;;;;;15.02;47.55;101662.03;5051745;28;50989;-49
2021/05/31 03:47:21;;;;;;;;;11.25;10.00;;;;;15.02;47.32;101653.31;5051278;28;51646;-49
2021/05/31 03:53:08;;;;;;;;;9.00;8.75;;;;;15.01;47.48;101654.13;5043207;28;51196;-50
2021/05/31 03:55:33;;;;;;;;;9.00;8.25;;;;;15.00;47.60;101662.81;5052121;28;50977;-48
2021/05/31 03:58:00;;;;;;;;;9.50;8.75;;;;;14.99;47.63;101671.50;5049368;28;51316;-50
2021/05/31 04:00:27;;;;;;;;;8.50;8.00;;;;;14.99;47.11;101666.28;5050733;28;50954;-48
2021/05/31 04:02:53;;;;;;;;;8.75;7.50;;;;;14.97;47.54;101666.22;5050670;28;52836;-49
2021/05/31 04:05:18;;;;;;;;;9.00;9.00;;;;;14.99;47.38;101668.88;5049471;28;51282;-49
2021/05/31 04:13:12;;;;;;;;;9.00;8.00;;;;;15.03;47.24;101658.56;5050994;28;51705;-48
2021/05/31 04:15:37;;;;;;;;;9.75;9.25;;;;;15.03;47.27;101658.56;5040666;28;51100;-48
2021/05/31 04:18:03;;;;;;;;;8.25;8.25;;;;;15.02;47.39;101671.63;5048291;28;51055;-48
2021/05/31 04:20:28;;;;;;;;;10.75;10.75;;;;;15.05;47.49;101663.88;5051039;28;51268;-50
2021/05/31 04:22:53;;;;;;;;;7.00;7.00;;;;;15.06;47.33;101658.72;5051243;28;52768;-48
2021/05/31 04:25:19;;;;;;;;;10.25;8.50;;;;;15.09;47.34;101660.53;5051337;28;51088;-50
2021/05/31 04:27:44;;;;;;;;;7.25;6.50;;;;;15.12;47.43;101659.75;5051123;28;51063;-49
2021/05/31 04:30:10;;;;;;;;;9.50;9.50;;;;;15.12;47.33;101652.81;5050599;28;50991;-49
2021/05/31 04:32:36;;;;;;;;;9.50;9.00;;;;;15.15;47.26;101657.28;5040867;28;51842;-49
2021/05/31 04:35:02;;;;;;;;;12.00;11.00;;;;;15.17;47.48;101661.72;5051589;28;51126;-50
2021/05/31 04:37:29;;;;;;;;;9.25;8.75;;;;;15.19;47.61;101664.41;5051904;28;51156;-49
2021/05/31 04:39:55;;;;;;;;;11.75;11.00;;;;;15.18;47.57;101652.16;5050933;28;51001;-51
2021/05/31 04:42:23;;;;;;;;;10.00;8.75;;;;;15.20;47.25;101650.47;5048952;28;51342;-50
2021/05/31 04:44:49;;;;;;;;;7.50;7.00;;;;;15.22;46.88;101649.69;5048798;28;51187;-49
2021/05/31 04:47:14;;;;;;;;;10.00;9.25;;;;;15.26;47.30;101653.31;5050619;28;51174;-48
2021/05/31 04:49:39;;;;;;;;;11.00;9.00;;;;;15.28;47.00;101664.75;5043680;28;51549;-49
2021/05/31 04:52:05;;;;;;;;;10.00;9.50;;;;;15.30;46.78;101657.81;5054638;28;51172;-50
2021/05/31 04:54:31;;;;;;;;;8.75;8.00;;;;;15.34;46.59;101659.72;5053656;28;51141;-48
2021/05/31 04:56:57;;;;;;;;;11.00;10.00;;;;;15.38;46.78;101655.47;5055211;28;51178;-49
2021/05/31 04:59:22;;;;;;;;;11.00;11.00;;;;;15.45;46.57;101667.06;5054935;28;51021;-49
2021/05/31 05:01:48;;;;;;;;;9.75;8.50;;;;;15.57;47.01;101659.66;5054710;28;51727;-46
2021/05/31 05:04:13;;;;;;;;;10.00;9.50;;;;;16.08;46.30;101668.41;5054656;28;51108;-49
2021/05/31 05:06:38;;;;;;;;;11.00;11.00;;;;;16.82;46.06;101666.34;5052810;28;51045;-50
2021/05/31 05:09:04;;;;;;;;;9.50;8.75;;;;;17.69;44.74;101658.28;5043894;28;51321;-49
2021/05/31 05:11:29;;;;;;;;;10.25;9.50;;;;;18.57;43.34;101658.69;5053025;28;52686;-48
2021/05/31 05:13:55;;;;;;;;;8.00;8.00;;;;;19.41;42.06;101656.94;5054595;28;50890;-51
2021/05/31 05:16:21;;;;;;;;;8.50;8.00;;;;;20.18;40.43;101656.56;5054667;28;51605;-49
2021/05/31 05:18:49;;;;;;;;;9.25;8.00;;;;;20.88;39.11;101649.66;5048829;28;51102;-50
2021/05/31 05:21:16;;;;;;;;;8.00;7.33;;;;;21.55;38.25;101645.13;5052473;28;51818;-49
2021/05/31 05:23:42;;;;;;;;;9.00;9.00;;;;;22.21;37.22;101638.66;5051744;28;51182;-49
2021/05/31 05:26:08;;;;;;;;;10.00;10.00;;;;;22.92;34.70;101639.94;5053624;28;51075;-49
2021/05/31 05:28:36;;;;;;;;;7.00;7.00;;;;;23.46;34.62;101644.53;5053170;28;50946;-48
2021/05/31 05:31:06;;;;;;;;;8.00;8.00;;;;;23.88;32.65;101647.25;5048418;28;52701;-49
2021/05/31 05:33:33;;;;;;;;;8.00;8.00;;;;;24.27;33.06;101644.59;5053887;28;51232;-49
2021/05/31 05:36:09;;;;;;;;;10.00;9.00;;;;;24.81;32.85;101647.97;5050163;28;51107;-50
2021/05/31 05:39:23;;;;;;;;;7.67;7.67;;;;;25.49;31.66;101634.31;5044265;28;51177;-49
2021/05/31 05:41:34;;;;;;;;;7.33;7.33;;;;;26.00;30.35;101641.03;5041566;28;52754;-48
2021/05/31 05:46:47;;;;;;;;;8.33;8.33;;;;;26.75;28.91;101640.28;5053310;28;50960;-49
2021/05/31 05:49:12;;;;;;;;;9.00;8.33;;;;;27.29;28.77;101640.50;5051154;28;51613;-50
2021/05/31 05:51:38;;;;;;;;;9.33;9.33;;;;;27.78;28.43;101638.84;5052398;28;53076;-49
2021/05/31 05:54:04;;;;;;;;;7.00;7.00;;;;;28.29;27.09;101639.78;5051154;28;51204;-49
2021/05/31 05:56:31;;;;;;;;;9.67;9.67;;;;;28.61;26.77;101638.25;5052434;28;51013;-49
2021/05/31 05:58:56;;;;;;;;;9.00;9.00;;;;;29.11;25.83;101639.91;5052151;28;51086;-49
2021/05/31 06:01:23;;;;;;;;;8.67;8.67;;;;;29.60;26.10;101639.69;5052621;28;51288;-50
2021/05/31 06:03:51;;;;;;;;;6.00;6.00;;;;;30.31;25.76;101634.28;5052896;28;50989;-50
2021/05/31 06:06:18;;;;;;;;;11.00;10.33;;;;;30.94;24.64;101630.72;5052824;28;51131;-51
2021/05/31 06:08:44;;;;;;;;;10.00;10.00;;;;;31.63;23.87;101633.94;5052101;28;51260;-52
2021/05/31 06:11:09;;;;;;;;;9.33;9.33;;;;;32.19;22.78;101634.72;5051865;28;51057;-52
2021/05/31 06:13:35;;;;;;;;;9.00;9.00;;;;;32.61;23.18;101634.09;5052531;28;51443;-48
2021/05/31 06:16:01;;;;;;;;;8.67;8.67;;;;;33.22;22.83;101630.91;5051749;28;51241;-50
2021/05/31 06:18:29;;;;;;;;;6.00;6.00;;;;;33.31;18.55;101629.63;5050409;28;51580;-50
2021/05/31 06:20:55;;;;;;;;;7.00;7.00;;;;;33.11;20.52;101629.53;5052868;28;51076;-51
2021/05/31 06:23:21;;;;;;;;;8.00;7.00;;;;;32.96;18.12;101624.72;5049061;28;51247;-50
2021/05/31 06:25:46;;;;;;;;;6.33;6.33;;;;;32.60;18.38;101626.97;5052845;28;51079;-52
2021/05/31 06:28:12;;;;;;;;;4.00;4.00;;;;;32.50;18.43;101628.28;5051034;28;51174;-51
2021/05/31 06:30:38;;;;;;;;;7.00;7.00;;;;;32.22;19.26;101638.19;5051187;28;51241;-52
2021/05/31 06:33:04;;;;;;;;;7.00;7.00;;;;;32.13;17.26;101637.66;5045536;28;51131;-51
2021/05/31 06:35:30;;;;;;;;;8.00;7.33;;;;;32.17;17.88;101634.78;5044963;28;51154;-50
2021/05/31 06:37:56;;;;;;;;;5.67;5.33;;;;;32.30;18.89;101635.22;5052388;28;50966;-50
2021/05/31 06:40:22;;;;;;;;;6.00;6.00;;;;;32.47;17.70;101639.13;5052294;28;51841;-51
2021/05/31 06:42:49;;;;;;;;;6.00;6.00;;;;;32.65;18.80;101642.91;5051573;28;51028;-52
2021/05/31 06:45:21;;;;;;;;;6.00;6.00;;;;;32.60;17.07;101636.84;5052732;28;50878;-50
2021/05/31 06:47:47;;;;;;;;;7.67;7.67;;;;;32.63;17.02;101633.16;5044422;28;51055;-49
2021/05/31 06:50:13;;;;;;;;;6.33;6.33;;;;;32.56;16.27;101636.09;5043425;28;51339;-52
2021/05/31 06:52:38;;;;;;;;;5.33;5.33;;;;;32.69;17.17;101632.94;5052977;28;51018;-51
2021/05/31 06:55:06;;;;;;;;;6.00;6.00;;;;;33.27;17.09;101639.66;5053016;28;51202;-51
2021/05/31 06:57:31;;;;;;;;;8.33;8.00;;;;;33.67;17.45;101637.13;5047050;28;51236;-51
2021/05/31 06:59:57;;;;;;;;;6.33;6.00;;;;;34.25;15.89;101618.50;5062342;28;53840;-50
2021/05/31 07:02:22;;;;;;;;;5.33;5.33;;;;;34.16;16.61;101627.91;5052565;28;51084;-49
2021/05/31 07:04:47;;;;;;;;;6.33;6.00;;;;;34.47;15.64;101622.94;5050844;28;51120;-53
2021/05/31 07:07:13;;;;;;;;;9.67;8.67;;;;;34.43;14.35;101622.16;5047400;28;52523;-50
2021/05/31 07:09:38;;;;;;;;;5.00;5.00;;;;;34.52;15.13;101618.19;5047439;28;51132;-52
2021/05/31 07:12:04;;;;;;;;;7.67;7.67;;;;;34.31;14.35;101610.13;5050751;28;51282;-50
2021/05/31 07:14:33;;;;;;;;;6.67;6.67;;;;;34.33;15.04;101615.47;5051631;28;51165;-51
2021/05/31 07:17:01;;;;;;;;;6.00;6.00;;;;;34.73;14.45;101612.75;5051923;28;51310;-49
2021/05/31 07:19:27;;;;;;;;;6.67;6.67;;;;;34.82;14.66;101617.69;5051861;28;52682;-52
2021/05/31 07:21:54;;;;;;;;;5.67;5.67;;;;;34.61;14.26;101612.41;5051893;28;51041;-49
2021/05/31 07:24:20;;;;;;;;;5.00;5.00;;;;;34.72;14.77;101613.69;5051629;28;51087;-52
2021/05/31 07:26:45;;;;;;;;;6.67;6.00;;;;;35.67;14.66;101615.38;5050289;28;51242;-50
2021/05/31 07:29:11;;;;;;;;;7.00;7.00;;;;;36.43;13.03;101610.53;5050685;28;52987;-50
2021/05/31 07:31:36;;;;;;;;;6.67;6.67;;;;;36.58;13.34;101616.03;5052118;28;51443;-50
2021/05/31 07:34:03;;;;;;;;;7.00;7.00;;;;;36.68;13.52;101611.88;5049185;28;50992;-52
2021/05/31 07:36:29;;;;;;;;;6.67;6.00;;;;;36.84;13.56;101606.47;5050421;28;51238;-52
2021/05/31 07:38:55;;;;;;;;;10.33;9.33;;;;;37.29;12.58;101614.72;5049535;28;52238;-48
2021/05/31 07:41:20;;;;;;;;;7.33;7.00;;;;;37.06;12.06;101612.47;5051719;28;51177;-49
2021/05/31 07:43:46;;;;;;;;;7.33;7.33;;;;;36.95;12.72;101610.38;5049090;28;51151;-52
2021/05/31 07:46:13;;;;;;;;;2.33;2.33;;;;;37.10;12.29;101609.50;5044486;28;51211;-52
2021/05/31 07:48:42;;;;;;;;;7.33;7.00;;;;;37.01;12.11;101612.75;5048940;28;52835;-51
2021/05/31 07:51:18;;;;;;;;;4.33;4.33;;;;;36.97;12.77;101603.91;5050307;28;51229;-50
2021/05/31 07:53:49;;;;;;;;;5.67;5.67;;;;;37.75;11.71;101604.84;5048524;28;51121;-52
2021/05/31 07:56:14;;;;;;;;;6.33;5.67;;;;;38.04;11.50;101604.00;5050288;28;51025;-51
2021/05/31 07:58:42;;;;;;;;;6.00;6.00;;;;;38.09;11.66;101599.16;5050885;28;51789;-49
2021/05/31 08:01:07;;;;;;;;;5.67;5.67;;;;;38.11;11.68;101599.09;5051316;28;50938;-52
2021/05/31 08:03:33;;;;;;;;;5.00;5.00;;;;;37.98;11.09;101602.53;5046430;28;51502;-50
2021/05/31 08:05:59;;;;;;;;;6.00;6.00;;;;;37.78;10.96;101604.66;5051498;28;51095;-53
2021/05/31 08:08:25;;;;;;;;;6.67;6.67;;;;;37.99;11.29;101606.09;5051038;28;51932;-50
2021/05/31 08:10:50;;;;;;;;;7.67;6.67;;;;;38.15;11.51;101603.34;5048322;28;50982;-52
2021/05/31 08:13:16;;;;;;;;;5.00;4.33;;;;;38.84;10.78;101614.31;5049327;28;51156;-48
2021/05/31 08:15:41;;;;;;;;;6.67;6.00;;;;;39.16;10.63;101601.44;5049527;28;51377;-50
2021/05/31 08:18:07;;;;;;;;;4.00;4.00;;;;;39.06;10.54;101606.63;5050316;28;51981;-49
2021/05/31 08:20:34;;;;;;;;;6.33;6.33;;;;;39.41;11.05;101586.19;5049153;28;51189;-51
2021/05/31 08:23:02;;;;;;;;;4.00;4.00;;;;;39.49;9.58;101587.41;5051527;28;51187;-51
2021/05/31 08:25:28;;;;;;;;;5.67;5.00;;;;;38.97;10.12;101576.41;5054360;28;51190;-51
2021/05/31 08:27:53;;;;;;;;;6.67;5.00;;;;;38.75;10.54;101576.09;5052814;28;51693;-53
2021/05/31 08:30:20;;;;;;;;;6.00;6.00;;;;;39.09;10.85;101574.72;5054205;28;50945;-51
2021/05/31 08:32:45;;;;;;;;;6.67;6.67;;;;;39.85;11.49;101579.53;5050919;28;51766;-51
2021/05/31 08:35:11;;;;;;;;;5.00;5.00;;;;;40.60;10.01;101584.22;5053414;28;51008;-53
2021/05/31 08:37:37;;;;;;;;;9.00;7.67;;;;;40.86;9.83;101570.56;5053860;28;52856;-50
2021/05/31 08:40:05;;;;;;;;;2.67;2.67;;;;;40.84;9.14;101576.09;5053276;28;51231;-52
2021/05/31 08:42:30;;;;;;;;;5.67;5.67;;;;;40.61;9.19;101570.50;5053737;28;51120;-53
2021/05/31 08:44:56;;;;;;;;;3.00;2.00;;;;;40.20;8.99;101574.41;5050957;28;51267;-52
2021/05/31 08:47:24;;;;;;;;;6.67;6.00;;;;;40.43;10.24;101564.59;5053455;28;51902;-54
2021/05/31 08:49:52;;;;;;;;;7.00;6.33;;;;;40.76;8.37;101564.91;5053456;28;51210;-53
2021/05/31 08:52:18;;;;;;;;;4.67;4.00;;;;;40.59;9.13;101561.59;5085826;27;51192;-52
2021/05/31 08:54:43;;;;;;;;;5.67;5.00;;;;;40.49;9.10;101563.28;5053272;28;51376;-53
2021/05/31 08:57:08;;;;;;;;;5.33;5.33;;;;;40.58;9.33;101565.31;5052108;28;51875;-52
2021/05/31 08:59:34;;;;;;;;;7.67;7.00;;;;;41.08;9.52;101556.16;5035776;28;51274;-54
2021/05/31 09:01:59;;;;;;;;;4.67;3.67;;;;;42.06;9.25;101558.63;5053023;28;51062;-52
2021/05/31 09:04:25;;;;;;;;;3.00;2.33;;;;;42.08;7.92;101556.66;5054548;28;51288;-53
2021/05/31 09:06:58;;;;;;;;;6.00;6.00;;;;;41.90;8.29;101548.97;5052603;28;51777;-52
2021/05/31 09:09:47;;;;;;;;;4.00;4.00;;;;;41.49;8.29;101547.66;5054163;28;51043;-54
2021/05/31 09:12:20;;;;;;;;;3.00;3.00;;;;;41.10;7.99;101551.50;5044846;28;51155;-54
2021/05/31 09:15:02;;;;;;;;;5.00;5.00;;;;;41.00;8.26;101540.41;5053940;28;51281;-53
2021/05/31 09:17:30;;;;;;;;;6.00;6.00;;;;;41.41;8.27;101546.38;5052633;28;52659;-52
2021/05/31 09:19:55;;;;;;;;;3.00;3.00;;;;;41.77;8.09;101548.22;5049780;28;50977;-53
2021/05/31 09:22:23;;;;;;;;;6.00;6.00;;;;;41.43;7.71;101540.81;5053611;28;50839;-52
2021/05/31 09:25:00;;;;;;;;;5.33;5.33;;;;;41.33;8.35;101537.97;5052882;28;50917;-55
2021/05/31 09:27:27;;;;;;;;;2.33;2.33;;;;;41.38;8.05;101527.56;5054957;28;51954;-53
2021/05/31 09:30:06;;;;;;;;;6.00;6.00;;;;;41.37;8.63;101546.75;5053194;28;51153;-53
2021/05/31 09:32:31;;;;;;;;;4.00;4.00;;;;;41.21;7.78;101547.91;5077208;27;52275;-51
2021/05/31 09:35:08;;;;;;;;;5.00;5.00;;;;;40.77;8.01;101534.84;5051325;28;51005;-54
2021/05/31 09:37:45;;;;;;;;;6.00;6.00;;;;;40.65;8.60;101533.03;5053018;28;51330;-54
2021/05/31 09:40:11;;;;;;;;;7.33;6.67;;;;;41.02;8.49;101516.66;5050384;28;51119;-53
2021/05/31 09:42:47;;;;;;;;;5.33;5.33;;;;;41.47;8.53;101543.19;5051198;28;51186;-54
2021/05/31 09:45:13;;;;;;;;;5.67;5.33;;;;;42.14;7.86;101527.97;5052213;28;51383;-52
2021/05/31 09:47:40;;;;;;;;;6.00;6.00;;;;;42.07;8.08;101522.16;5050013;28;51757;-54
2021/05/31 09:50:06;;;;;;;;;3.67;3.33;;;;;42.22;7.88;101531.84;5052284;28;51098;-55
2021/05/31 09:52:33;;;;;;;;;6.67;6.33;;;;;42.49;8.03;101533.25;5048692;28;51262;-53
2021/05/31 09:55:05;;;;;;;;;7.00;7.00;;;;;43.03;7.59;101521.56;5052448;28;51317;-55
2021/05/31 09:57:35;;;;;;;;;5.33;5.33;;;;;43.57;7.25;101526.09;5052021;28;51033;-54
2021/05/31 10:00:15;;;;;;;;;6.00;5.67;;;;;43.88;7.80;101531.59;5052288;28;51403;-54
2021/05/31 10:08:16;;;;;;;;;3.00;3.00;;;;;45.60;6.57;101536.78;5052280;28;51574;-53
2021/05/31 10:10:44;;;;;;;;;6.00;6.00;;;;;45.60;7.08;101534.03;5052344;28;51116;-54
2021/05/31 10:13:09;;;;;;;;;6.00;5.67;;;;;46.23;6.97;101536.19;5052332;28;51045;-54
2021/05/31 10:15:41;;;;;;;;;6.00;6.00;;;;;46.75;6.40;101538.31;5052836;28;51020;-54
2021/05/31 10:18:10;;;;;;;;;6.00;6.00;;;;;47.24;6.16;101525.16;5052658;28;52329;-54
2021/05/31 10:20:37;;;;;;;;;6.00;6.00;;;;;47.99;5.46;101523.69;5052506;28;50966;-55
2021/05/31 10:23:05;;;;;;;;;7.67;7.00;;;;;48.56;5.97;101526.75;5052382;28;50903;-55
2021/05/31 10:25:31;;;;;;;;;6.00;5.67;;;;;49.25;5.88;101525.56;5052968;28;51362;-53
2021/05/31 10:28:05;;;;;;;;;6.00;5.00;;;;;48.89;5.32;101518.50;5052265;28;51878;-54
2021/05/31 10:30:39;;;;;;;;;6.67;6.67;;;;;49.16;4.47;101521.94;5052775;28;51148;-53
2021/05/31 10:33:14;;;;;;;;;5.33;5.33;;;;;49.35;5.05;101515.22;5052184;28;50939;-54
2021/05/31 10:35:39;;;;;;;;;6.33;6.33;;;;;49.21;5.11;101521.44;5052644;28;50938;-53
2021/05/31 10:38:13;;;;;;;;;5.67;5.67;;;;;48.59;4.85;101515.44;5052383;28;52515;-54
2021/05/31 10:40:43;;;;;;;;;6.33;6.33;;;;;47.80;5.11;101516.53;5049716;28;50914;-52
2021/05/31 10:43:11;;;;;;;;;6.67;6.67;;;;;47.14;5.68;101517.88;5052076;28;51040;-54
2021/05/31 10:45:38;;;;;;;;;6.00;5.33;;;;;46.95;5.92;101523.56;5050980;28;51133;-54
2021/05/31 10:48:03;;;;;;;;;8.25;8.25;;;;;46.59;6.02;101503.31;5050635;28;52385;-54
2021/05/31 10:50:36;;;;;;;;;10.50;10.50;;;;;46.83;5.65;101507.31;5052134;28;50933;-52
2021/05/31 10:53:02;;;;;;;;;5.00;5.00;;;;;46.05;5.33;101511.47;5052625;28;51056;-54
2021/05/31 10:55:28;;;;;;;;;6.00;6.00;;;;;44.64;6.18;101499.22;5052588;28;51025;-55
2021/05/31 10:57:56;;;;;;;;;6.33;6.33;;;;;42.90;6.79;101505.34;5051782;28;51580;-53
2021/05/31 11:00:31;;;;;;;;;6.00;6.00;;;;;41.26;8.09;101499.41;5052164;28;51045;-53
2021/05/31 11:03:09;;;;;;;;;4.33;4.33;;;;;39.86;8.11;101493.44;5050667;28;51152;-54
2021/05/31 11:05:36;;;;;;;;;4.00;4.00;;;;;39.03;8.39;101493.66;5050805;28;51066;-56
2021/05/31 11:08:03;;;;;;;;;5.00;5.00;;;;;37.98;8.79;101495.94;5052098;28;51957;-53
2021/05/31 11:10:30;;;;;;;;;2.67;2.67;;;;;36.39;9.56;101506.19;5052230;28;50907;-54
2021/05/31 11:13:07;;;;;;;;;6.33;6.33;;;;;35.20;10.37;101504.31;5051055;28;51122;-55
2021/05/31 11:15:35;;;;;;;;;4.67;4.67;;;;;34.00;11.71;101495.69;5051778;28;50962;-55
2021/05/31 11:18:00;;;;;;;;;6.00;6.00;;;;;32.92;12.85;101486.81;5050093;28;52989;-54
2021/05/31 11:20:28;;;;;;;;;6.00;6.00;;;;;31.87;13.42;101483.66;5050081;28;50949;-54
2021/05/31 11:23:03;;;;;;;;;4.00;4.00;;;;;30.67;14.80;101493.91;5051969;28;50981;-53
2021/05/31 11:25:30;;;;;;;;;5.33;5.33;;;;;29.81;15.22;101479.47;5051716;28;51119;-51
2021/05/31 11:27:59;;;;;;;;;6.67;6.00;;;;;29.21;15.30;101469.44;5051388;28;51828;-52
2021/05/31 11:30:27;;;;;;;;;4.67;4.67;;;;;28.76;16.32;101475.84;5051753;28;51089;-54
2021/05/31 11:32:55;;;;;;;;;5.00;5.00;;;;;28.39;16.58;101469.56;5051391;28;51077;-55
2021/05/31 11:35:22;;;;;;;;;4.67;4.67;;;;;28.13;17.39;101463.84;5051904;28;51193;-52
2021/05/31 11:37:48;;;;;;;;;5.67;5.67;;;;;28.02;16.57;101456.06;5051541;28;51760;-56
2021/05/31 11:40:24;;;;;;;;;6.00;6.00;;;;;27.96;17.71;101455.31;5040058;28;51143;-54
2021/05/31 11:43:01;;;;;;;;;5.67;5.67;;;;;27.72;17.03;101446.88;5054777;28;51082;-54
2021/05/31 11:45:32;;;;;;;;;7.00;7.00;;;;;27.29;18.34;101454.75;5046269;28;51288;-54
2021/05/31 11:48:00;;;;;;;;;5.67;5.67;;;;;26.89;17.97;101455.38;5050834;28;51925;-54
2021/05/31 11:50:27;;;;;;;;;4.33;4.33;;;;;26.49;18.84;101439.13;5050845;28;51044;-52